Time;durP1;ratioP1;P1;durP2;ratioP2;P2;SDS_P1;SDS_P2;PMS_P1;PMS_P2;Temp;Humidity;BMP_temperature;BMP_pressure;BME280_temperature;BME280_humidity;BME280_pressure;Samples;Min_cycle;Max_cycle;Signal;HPM_P1;HPM_P2
2024/02/07 06:16:05;;;;;;;;;22.75;21.50;;;;;;;;5711945;23;11588;-71
2024/02/07 06:18:31;;;;;;;;;25.00;22.00;;;;;;;;5011835;28;11535;-71
2024/02/07 06:20:56;;;;;;;;;23.00;22.00;;;;;;;;5011851;28;9571;-81
2024/02/07 06:23:22;;;;;;;;;22.50;21.50;;;;;;;;5013911;28;8900;-74
2024/02/07 06:25:48;;;;;;;;;19.00;17.75;;;;;;;;5013717;28;9552;-72
2024/02/07 06:28:13;;;;;;;;;23.25;22.50;;;;;;;;4995943;28;8806;-72
2024/02/07 06:30:39;;;;;;;;;27.25;24.50;;;;;;;;5013793;28;11531;-72
2024/02/07 06:33:04;;;;;;;;;26.25;23.00;;;;;;;;5013829;28;8782;-69
2024/02/07 06:35:29;;;;;;;;;29.75;26.00;;;;;;;;4994718;28;8826;-70
2024/02/07 06:37:54;;;;;;;;;27.75;26.75;;;;;;;;4994855;28;8888;-73
2024/02/07 06:40:20;;;;;;;;;27.50;23.75;;;;;;;;5013266;28;8807;-71
2024/02/07 06:56:36;;;;;;;;;28.33;23.67;;;;;;;;5105496;27;13437;-69
2024/02/07 06:59:02;;;;;;;;;20.25;16.50;;;;;;;;5106884;28;11516;-71
2024/02/07 07:01:27;;;;;;;;;21.50;18.75;;;;;;;;5107900;28;8796;-73
2024/02/07 07:05:38;;;;;;;;;31.67;31.00;;;;;;;;5104843;27;13437;-73
2024/02/07 07:08:03;;;;;;;;;28.75;27.25;;;;;;;;5106844;28;11536;-75
2024/02/07 07:10:29;;;;;;;;;26.00;22.25;;;;;;;;5107084;28;8858;-73
2024/02/07 07:12:54;;;;;;;;;36.00;27.75;;;;;;;;5108320;28;8922;-74
2024/02/07 07:15:22;;;;;;;;;29.25;27.00;;;;;;;;5108240;28;9515;-77
2024/02/07 07:17:47;;;;;;;;;30.00;26.50;;;;;;;;5119051;27;8860;-76
2024/02/07 07:20:12;;;;;;;;;29.25;27.75;;;;;;;;5110684;28;11519;-76
2024/02/07 07:22:38;;;;;;;;;38.00;31.25;;;;;;;;5094958;28;8795;-76
2024/02/07 07:25:03;;;;;;;;;26.50;20.75;;;;;;;;5087773;28;8890;-76
2024/02/07 07:27:30;;;;;;;;;26.75;22.75;;;;;;;;5088325;28;8824;-76
2024/02/07 07:29:55;;;;;;;;;30.00;29.50;;;;;;;;5097356;28;8804;-77
2024/02/07 07:32:20;;;;;;;;;26.75;26.75;;;;;;;;5087084;28;11506;-77
2024/02/07 07:34:46;;;;;;;;;21.50;21.50;;;;;;;;5087419;28;8875;-77
2024/02/07 07:37:11;;;;;;;;;23.75;23.75;;;;;;;;5087477;28;8929;-75
2024/02/07 07:39:36;;;;;;;;;27.75;23.75;;;;;;;;5086133;28;8924;-75
2024/02/07 07:42:01;;;;;;;;;27.50;24.25;;;;;;;;5087474;28;8871;-75
2024/02/07 07:44:27;;;;;;;;;35.33;31.67;;;;;;;;5087302;28;8853;-73
2024/02/07 07:46:52;;;;;;;;;29.25;25.00;;;;;;;;5088474;27;8782;-73
2024/02/07 07:49:18;;;;;;;;;42.33;39.33;;;;;;;;5128237;27;8797;-73
2024/02/07 07:51:43;;;;;;;;;34.75;32.00;;;;;;;;5128105;27;8773;-74
2024/02/07 07:54:08;;;;;;;;;30.75;26.75;;;;;;;;5126839;27;8906;-74
2024/02/07 07:56:34;;;;;;;;;27.00;24.25;;;;;;;;5126638;27;8801;-74
2024/02/07 07:58:59;;;;;;;;;27.00;25.75;;;;;;;;5127906;27;8809;-73
2024/02/07 08:01:25;;;;;;;;;27.75;26.25;;;;;;;;5127706;27;8789;-72
2024/02/07 08:03:53;;;;;;;;;29.00;23.50;;;;;;;;5127184;27;8825;-75
2024/02/07 08:06:19;;;;;;;;;34.75;24.25;;;;;;;;5127708;27;8851;-73
2024/02/07 08:08:44;;;;;;;;;27.50;25.00;;;;;;;;5127685;27;11491;-73
2024/02/07 08:11:09;;;;;;;;;21.75;21.25;;;;;;;;5127698;27;8785;-71
2024/02/07 08:13:35;;;;;;;;;28.75;28.50;;;;;;;;5126478;27;8805;-78
2024/02/07 08:16:00;;;;;;;;;35.25;29.50;;;;;;;;5119495;27;8824;-72
2024/02/07 08:18:26;;;;;;;;;32.00;27.50;;;;;;;;5113767;27;9557;-72
2024/02/07 08:20:53;;;;;;;;;24.75;23.00;;;;;;;;5113772;28;8777;-72
2024/02/07 08:23:18;;;;;;;;;27.25;25.50;;;;;;;;5113931;27;8778;-72
2024/02/07 08:25:43;;;;;;;;;30.25;28.00;;;;;;;;5113557;28;11560;-72
2024/02/07 08:28:09;;;;;;;;;25.75;24.75;;;;;;;;5101773;28;8815;-72
2024/02/07 08:30:34;;;;;;;;;25.00;23.75;;;;;;;;5081638;28;8891;-72
2024/02/07 08:32:59;;;;;;;;;29.50;26.25;;;;;;;;5072617;28;8816;-73
2024/02/07 08:35:24;;;;;;;;;64.00;51.00;;;;;;;;5072883;28;8851;-72
2024/02/07 08:37:50;;;;;;;;;64.33;49.33;;;;;;;;5071450;28;8818;-70
2024/02/07 08:40:15;;;;;;;;;64.67;50.00;;;;;;;;5072822;28;8809;-72
2024/02/07 08:42:41;;;;;;;;;59.00;49.00;;;;;;;;5072861;28;8795;-72
2024/02/07 08:45:06;;;;;;;;;60.33;48.67;;;;;;;;5072615;28;9523;-72
2024/02/07 08:47:31;;;;;;;;;61.67;46.00;;;;;;;;5083354;28;8808;-73
2024/02/07 08:49:57;;;;;;;;;60.67;50.00;;;;;;;;5113289;28;8785;-72
2024/02/07 08:52:22;;;;;;;;;62.67;51.00;;;;;;;;5113131;28;8797;-71
2024/02/07 08:54:48;;;;;;;;;60.67;44.67;;;;;;;;5113183;28;8793;-72
2024/02/07 08:57:13;;;;;;;;;56.00;45.00;;;;;;;;5110905;28;8813;-72
2024/02/07 13:21:36;;;;;;;;;38.00;34.00;;;;;;;;5104654;27;14324;-72
2024/02/07 13:24:01;;;;;;;;;42.25;39.25;;;;;;;;5106920;28;11523;-72
2024/02/07 13:26:28;;;;;;;;;51.75;43.00;;;;;;;;5107857;28;8804;-72
2024/02/07 13:28:53;;;;;;;;;32.00;29.75;;;;;;;;5107929;28;8880;-73
2024/02/07 13:31:19;;;;;;;;;40.75;31.50;;;;;;;;5107914;28;11505;-72
2024/02/07 13:33:44;;;;;;;;;31.00;29.75;;;;;;;;5102138;28;9532;-72
2024/02/07 13:36:09;;;;;;;;;33.50;27.50;;;;;;;;5096180;28;8798;-72
2024/02/07 13:38:34;;;;;;;;;26.50;26.25;;;;;;;;5087671;28;8791;-72
2024/02/07 13:41:00;;;;;;;;;29.50;27.00;;;;;;;;5087286;28;8945;-73
2024/02/07 13:43:25;;;;;;;;;34.50;29.25;;;;;;;;5087055;28;9503;-75
2024/02/07 13:45:50;;;;;;;;;30.25;27.25;;;;;;;;5087122;28;8825;-71
2024/02/07 13:48:15;;;;;;;;;31.75;25.50;;;;;;;;5110583;27;8805;-71
2024/02/07 13:50:41;;;;;;;;;29.75;27.25;;;;;;;;5128131;27;8800;-71
2024/02/07 13:53:08;;;;;;;;;29.75;24.75;;;;;;;;5128068;27;8889;-71
2024/02/07 13:55:34;;;;;;;;;32.00;27.00;;;;;;;;5127772;27;8915;-71
2024/02/07 13:57:59;;;;;;;;;29.75;27.50;;;;;;;;5127781;27;11496;-71
2024/02/07 14:00:24;;;;;;;;;28.50;28.50;;;;;;;;5127906;27;8812;-71
2024/02/07 14:02:50;;;;;;;;;32.75;30.75;;;;;;;;5126196;27;8798;-74
2024/02/07 14:05:16;;;;;;;;;28.75;26.25;;;;;;;;5127632;27;8870;-71
2024/02/07 14:07:41;;;;;;;;;31.00;29.00;;;;;;;;5109567;27;8820;-72
2024/02/07 14:10:07;;;;;;;;;27.00;24.50;;;;;;;;5093166;28;11662;-76
2024/02/07 14:12:32;;;;;;;;;33.00;29.75;;;;;;;;5086381;28;8809;-78
2024/02/07 14:14:57;;;;;;;;;26.00;26.00;;;;;;;;5096519;28;8850;-77
2024/02/07 14:17:23;;;;;;;;;31.75;28.25;;;;;;;;5111970;27;9532;-77
2024/02/07 14:19:48;;;;;;;;;29.75;27.75;;;;;;;;5126053;27;8820;-76
2024/02/07 14:22:14;;;;;;;;;29.25;25.75;;;;;;;;5127277;27;8831;-73
2024/02/07 14:24:40;;;;;;;;;29.00;24.25;;;;;;;;5126014;27;8823;-71
2024/02/07 14:27:05;;;;;;;;;28.25;26.50;;;;;;;;5126092;27;8800;-72
2024/02/07 14:29:31;;;;;;;;;31.25;27.50;;;;;;;;5126696;27;11538;-71
2024/02/07 14:31:56;;;;;;;;;26.50;22.00;;;;;;;;5102640;28;8803;-71
2024/02/07 14:34:21;;;;;;;;;26.50;25.50;;;;;;;;5092605;28;8804;-71
2024/02/07 14:36:47;;;;;;;;;32.75;28.00;;;;;;;;5092557;28;8804;-74
2024/02/07 14:39:12;;;;;;;;;34.25;33.25;;;;;;;;5092816;28;8811;-70
2024/02/07 14:41:37;;;;;;;;;37.50;32.25;;;;;;;;5092790;28;8907;-73
2024/02/07 14:44:03;;;;;;;;;37.00;34.00;;;;;;;;5092909;28;8876;-72
2024/02/07 14:46:28;;;;;;;;;34.25;33.00;;;;;;;;5091277;28;8814;-77
2024/02/07 14:48:53;;;;;;;;;30.50;27.75;;;;;;;;5092520;28;8886;-73
2024/02/07 14:51:18;;;;;;;;;45.00;36.75;;;;;;;;5092405;28;8902;-74
2024/02/07 14:53:44;;;;;;;;;31.00;26.75;;;;;;;;5092217;28;8792;-71
2024/02/07 14:56:09;;;;;;;;;35.50;32.75;;;;;;;;5092020;28;8804;-75
2024/02/07 14:58:34;;;;;;;;;26.00;24.50;;;;;;;;5092278;28;8804;-71
2024/02/07 15:01:00;;;;;;;;;26.50;25.50;;;;;;;;5092253;28;8950;-71
2024/02/07 15:03:25;;;;;;;;;34.75;27.00;;;;;;;;5091218;28;9481;-71
2024/02/07 15:05:51;;;;;;;;;29.25;24.50;;;;;;;;5091528;28;8792;-70
2024/02/07 15:08:16;;;;;;;;;28.25;28.25;;;;;;;;5091811;28;8815;-70
2024/02/07 15:10:42;;;;;;;;;35.25;31.00;;;;;;;;5090122;28;11557;-72
2024/02/07 15:13:07;;;;;;;;;36.50;33.75;;;;;;;;5090857;28;9530;-71
2024/02/07 15:15:33;;;;;;;;;32.25;26.00;;;;;;;;5088235;28;8824;-72
2024/02/07 15:17:58;;;;;;;;;36.00;33.50;;;;;;;;5095220;22;9623;-69
2024/02/07 15:20:23;;;;;;;;;35.25;32.50;;;;;;;;5070900;28;8823;-69
2024/02/07 15:22:48;;;;;;;;;35.50;32.25;;;;;;;;5071468;28;8835;-71
2024/02/07 15:25:14;;;;;;;;;42.50;35.50;;;;;;;;5071757;28;8776;-68
2024/02/07 15:27:40;;;;;;;;;37.25;33.75;;;;;;;;5088865;28;8795;-69
2024/02/07 15:30:06;;;;;;;;;31.00;29.75;;;;;;;;5092024;28;8908;-71
2024/02/07 15:32:32;;;;;;;;;38.75;31.50;;;;;;;;5091692;28;11503;-70
2024/02/07 15:34:58;;;;;;;;;39.00;34.50;;;;;;;;5090634;28;8829;-70
2024/02/07 15:37:23;;;;;;;;;42.75;37.00;;;;;;;;5091405;28;11441;-69
2024/02/07 15:39:48;;;;;;;;;38.50;34.25;;;;;;;;5091900;28;8810;-69
2024/02/07 15:42:13;;;;;;;;;38.50;34.50;;;;;;;;5091287;28;8839;-69
2024/02/07 15:44:39;;;;;;;;;44.50;39.25;;;;;;;;5090770;28;9523;-69
2024/02/07 15:47:05;;;;;;;;;46.25;34.75;;;;;;;;5091691;28;8774;-72
2024/02/07 15:49:31;;;;;;;;;41.00;34.00;;;;;;;;5091388;28;8886;-71
2024/02/07 15:51:56;;;;;;;;;31.25;27.00;;;;;;;;5091596;28;8774;-70
2024/02/07 15:54:22;;;;;;;;;31.00;31.00;;;;;;;;5080379;28;12013;-69
2024/02/07 15:56:47;;;;;;;;;33.50;27.75;;;;;;;;5066831;28;8900;-70
2024/02/07 15:59:15;;;;;;;;;28.50;23.50;;;;;;;;5070199;28;8812;-70
2024/02/07 16:01:40;;;;;;;;;38.75;31.25;;;;;;;;5069516;28;8937;-72
2024/02/07 16:04:05;;;;;;;;;37.75;33.25;;;;;;;;5050193;28;12254;-72
2024/02/07 16:06:37;;;;;;;;;36.75;32.25;;;;;;;;5050423;28;8807;-74
2024/02/07 16:09:02;;;;;;;;;36.25;31.75;;;;;;;;5068984;28;8800;-71
2024/02/07 16:11:28;;;;;;;;;31.25;29.25;;;;;;;;5069407;28;11763;-73
2024/02/07 16:13:53;;;;;;;;;32.25;28.50;;;;;;;;5070824;28;8847;-72
2024/02/07 16:16:19;;;;;;;;;31.00;24.50;;;;;;;;5048701;28;8824;-71
2024/02/07 16:18:44;;;;;;;;;34.75;25.75;;;;;;;;5069048;28;8812;-71
2024/02/07 16:21:10;;;;;;;;;31.75;26.00;;;;;;;;5049694;28;8842;-69
2024/02/07 16:23:35;;;;;;;;;23.50;23.50;;;;;;;;5069466;28;8917;-72
2024/02/07 16:26:01;;;;;;;;;26.75;24.75;;;;;;;;5067646;28;9542;-71
2024/02/07 16:28:26;;;;;;;;;30.50;28.75;;;;;;;;5069139;28;8796;-70
2024/02/07 16:30:51;;;;;;;;;34.75;32.75;;;;;;;;5068875;28;8930;-72
2024/02/07 16:33:17;;;;;;;;;35.25;28.00;;;;;;;;5068837;28;8782;-72
2024/02/07 16:35:42;;;;;;;;;34.50;33.00;;;;;;;;5070099;28;8778;-72
2024/02/07 16:38:07;;;;;;;;;37.75;34.00;;;;;;;;5050896;28;8861;-71
2024/02/07 16:40:33;;;;;;;;;40.50;31.50;;;;;;;;5068384;28;8829;-71
2024/02/07 16:42:58;;;;;;;;;42.50;39.00;;;;;;;;5069269;28;8826;-70
2024/02/07 16:45:23;;;;;;;;;37.25;35.50;;;;;;;;5067684;28;8922;-70
2024/02/07 16:47:49;;;;;;;;;33.50;32.50;;;;;;;;5069145;28;8854;-70
2024/02/07 16:50:14;;;;;;;;;36.25;30.50;;;;;;;;5080850;28;8806;-71
2024/02/07 16:52:40;;;;;;;;;37.50;31.25;;;;;;;;5089394;28;8798;-71
2024/02/07 16:55:06;;;;;;;;;32.75;26.25;;;;;;;;5077024;28;8804;-71
2024/02/07 16:57:31;;;;;;;;;28.00;26.75;;;;;;;;5089267;28;8794;-70
2024/02/07 16:59:56;;;;;;;;;28.50;27.25;;;;;;;;5089007;28;11526;-72
2024/02/07 17:02:22;;;;;;;;;28.25;27.00;;;;;;;;5089267;28;8801;-71
2024/02/07 17:04:47;;;;;;;;;34.00;30.00;;;;;;;;5087971;28;8786;-74
2024/02/07 17:07:12;;;;;;;;;30.25;30.25;;;;;;;;5087217;28;8781;-71
2024/02/07 17:09:38;;;;;;;;;35.50;28.00;;;;;;;;5071349;28;8840;-71
2024/02/07 17:12:03;;;;;;;;;28.50;27.00;;;;;;;;5068656;28;8826;-75
2024/02/07 17:14:28;;;;;;;;;27.25;26.75;;;;;;;;5074026;28;8806;-73
2024/02/07 17:16:54;;;;;;;;;28.00;27.00;;;;;;;;5086415;28;8798;-74
2024/02/07 17:19:19;;;;;;;;;38.50;29.75;;;;;;;;5089108;28;8781;-74
2024/02/07 17:21:44;;;;;;;;;27.75;26.25;;;;;;;;5089040;28;9525;-74
2024/02/07 17:24:10;;;;;;;;;32.50;29.00;;;;;;;;5088236;28;8808;-72
2024/02/07 17:26:35;;;;;;;;;30.50;28.50;;;;;;;;5072052;28;8909;-73
2024/02/07 17:29:00;;;;;;;;;34.50;26.75;;;;;;;;5068703;28;8768;-74
2024/02/07 17:31:25;;;;;;;;;30.25;25.75;;;;;;;;5068558;28;8804;-71
2024/02/07 17:33:51;;;;;;;;;32.75;30.00;;;;;;;;5068537;28;8780;-72
2024/02/07 17:36:16;;;;;;;;;29.25;22.25;;;;;;;;5066485;28;8799;-70
2024/02/07 17:38:43;;;;;;;;;37.25;30.00;;;;;;;;5068099;28;8808;-73
2024/02/07 17:41:12;;;;;;;;;34.25;29.00;;;;;;;;5066670;28;8816;-68
2024/02/07 17:43:37;;;;;;;;;31.25;26.00;;;;;;;;5066840;28;11591;-68
2024/02/07 17:46:03;;;;;;;;;45.00;35.75;;;;;;;;5065928;28;11490;-70
2024/02/07 17:48:28;;;;;;;;;32.50;30.00;;;;;;;;5066252;28;8824;-72
2024/02/07 17:50:54;;;;;;;;;30.50;27.50;;;;;;;;5056773;28;8828;-70
2024/02/07 17:53:19;;;;;;;;;30.00;27.25;;;;;;;;5066427;28;8845;-71
2024/02/07 17:55:45;;;;;;;;;29.25;25.25;;;;;;;;5065514;28;8849;-71
2024/02/07 17:58:11;;;;;;;;;29.50;28.50;;;;;;;;5066584;28;8802;-70
2024/02/07 18:00:36;;;;;;;;;32.00;27.00;;;;;;;;5066913;28;8847;-71
2024/02/07 18:03:01;;;;;;;;;30.25;25.50;;;;;;;;5067239;28;11508;-72
2024/02/07 18:05:26;;;;;;;;;59.00;44.75;;;;;;;;5064853;28;8794;-71
2024/02/07 18:07:54;;;;;;;;;35.75;31.00;;;;;;;;5069973;28;8809;-72
2024/02/07 18:10:20;;;;;;;;;29.00;26.75;;;;;;;;5070658;28;8781;-70
2024/02/07 18:12:45;;;;;;;;;34.25;30.50;;;;;;;;5070383;28;11452;-70
2024/02/07 18:15:10;;;;;;;;;81.67;62.67;;;;;;;;5068633;28;9258;-70
2024/02/07 18:17:36;;;;;;;;;34.25;28.50;;;;;;;;5070531;28;8805;-72
2024/02/07 18:20:01;;;;;;;;;24.00;23.00;;;;;;;;5073179;28;8846;-72
2024/02/07 18:22:26;;;;;;;;;35.00;26.00;;;;;;;;5070601;28;9518;-72
2024/02/07 18:24:52;;;;;;;;;34.00;30.00;;;;;;;;5069500;28;8757;-69
2024/02/07 18:27:17;;;;;;;;;32.25;29.25;;;;;;;;5070239;28;9517;-70
2024/02/07 18:29:42;;;;;;;;;35.75;30.00;;;;;;;;5070174;28;8810;-68
2024/02/07 18:32:09;;;;;;;;;32.50;29.25;;;;;;;;5070769;28;8824;-70
2024/02/07 18:34:34;;;;;;;;;30.50;26.00;;;;;;;;5052249;28;9546;-71
2024/02/07 18:37:03;;;;;;;;;32.25;31.00;;;;;;;;5069509;28;11599;-70
2024/02/07 18:39:28;;;;;;;;;34.50;32.50;;;;;;;;5070976;28;8799;-70
2024/02/07 18:41:54;;;;;;;;;39.25;31.00;;;;;;;;5071407;28;11469;-71
2024/02/07 18:44:20;;;;;;;;;31.00;29.25;;;;;;;;5071039;28;8922;-70
2024/02/07 18:46:45;;;;;;;;;41.75;33.25;;;;;;;;5054545;28;12417;-69
2024/02/07 18:49:10;;;;;;;;;34.25;31.75;;;;;;;;5072682;28;8790;-70
2024/02/07 18:51:36;;;;;;;;;34.25;31.75;;;;;;;;5070545;28;8910;-70
2024/02/07 18:54:02;;;;;;;;;30.50;26.50;;;;;;;;5070889;28;8831;-69
2024/02/07 18:56:27;;;;;;;;;26.50;25.50;;;;;;;;5070963;28;8826;-72
2024/02/07 18:58:52;;;;;;;;;34.25;28.00;;;;;;;;5070543;28;8800;-69
2024/02/07 19:01:17;;;;;;;;;33.25;31.25;;;;;;;;5071030;28;8854;-69
2024/02/07 19:03:43;;;;;;;;;32.25;26.50;;;;;;;;5075377;28;8849;-70
2024/02/07 19:06:08;;;;;;;;;40.25;32.50;;;;;;;;5068861;28;8848;-70
2024/02/07 19:08:33;;;;;;;;;34.75;27.75;;;;;;;;5070724;28;8847;-69
2024/02/07 19:10:59;;;;;;;;;29.50;26.75;;;;;;;;5070822;28;8832;-69
2024/02/07 19:13:24;;;;;;;;;33.75;28.00;;;;;;;;5070314;28;8801;-71
2024/02/07 19:15:49;;;;;;;;;29.00;26.00;;;;;;;;5069041;28;8802;-72
2024/02/07 19:18:14;;;;;;;;;31.25;27.50;;;;;;;;5070015;28;9543;-71
2024/02/07 19:20:42;;;;;;;;;30.00;28.25;;;;;;;;5071883;28;8809;-70
2024/02/07 19:23:08;;;;;;;;;25.75;21.00;;;;;;;;5067134;28;8804;-69
2024/02/07 19:25:33;;;;;;;;;27.75;22.00;;;;;;;;5046675;28;11420;-69
2024/02/07 19:27:58;;;;;;;;;27.50;23.50;;;;;;;;5069891;28;8927;-69
2024/02/07 19:30:23;;;;;;;;;23.00;22.25;;;;;;;;5070014;28;8820;-69
2024/02/07 19:32:49;;;;;;;;;22.75;20.75;;;;;;;;5052448;28;9585;-71
2024/02/07 19:35:14;;;;;;;;;24.75;23.00;;;;;;;;5068241;28;8823;-69
2024/02/07 19:37:39;;;;;;;;;22.00;20.75;;;;;;;;5069946;28;8805;-70
2024/02/07 19:40:08;;;;;;;;;27.75;24.75;;;;;;;;5069252;28;8842;-72
2024/02/07 19:42:34;;;;;;;;;27.25;21.25;;;;;;;;5068168;28;8804;-69
2024/02/07 19:44:59;;;;;;;;;20.50;13.00;;;;;;;;5067068;28;11460;-69
2024/02/07 19:47:25;;;;;;;;;30.25;25.00;;;;;;;;5069745;28;8800;-76
2024/02/07 19:49:50;;;;;;;;;32.50;28.25;;;;;;;;5061191;28;8810;-71
2024/02/07 19:52:15;;;;;;;;;28.50;24.00;;;;;;;;5069336;28;8911;-74
2024/02/07 19:54:41;;;;;;;;;29.50;25.50;;;;;;;;5053883;28;8808;-76
2024/02/07 19:57:06;;;;;;;;;30.75;25.00;;;;;;;;5071514;28;8802;-73
2024/02/07 19:59:31;;;;;;;;;25.25;23.75;;;;;;;;5069542;28;8893;-76
2024/02/07 20:01:56;;;;;;;;;25.50;23.00;;;;;;;;5071308;28;8812;-77
2024/02/07 20:04:22;;;;;;;;;25.00;22.00;;;;;;;;5053499;28;8797;-77
2024/02/07 20:06:47;;;;;;;;;23.75;21.00;;;;;;;;5071230;28;8973;-79
2024/02/07 20:09:13;;;;;;;;;27.75;22.50;;;;;;;;5070966;28;8992;-76
2024/02/07 20:11:38;;;;;;;;;25.00;22.00;;;;;;;;5070856;28;8858;-74
2024/02/07 20:14:08;;;;;;;;;20.75;20.25;;;;;;;;5070979;28;8764;-76
2024/02/07 20:16:33;;;;;;;;;25.00;20.75;;;;;;;;5071179;28;8792;-76
2024/02/07 20:19:00;;;;;;;;;10.50;8.00;;;;;;;;5072060;28;12348;-77
2024/02/07 20:21:25;;;;;;;;;27.75;18.25;;;;;;;;5090906;28;8830;-72
2024/02/07 20:23:51;;;;;;;;;17.75;17.75;;;;;;;;5090970;28;11607;-73
2024/02/07 20:26:16;;;;;;;;;17.00;16.25;;;;;;;;5091159;28;8770;-73
2024/02/07 20:28:41;;;;;;;;;19.00;17.00;;;;;;;;5091223;28;8805;-72
2024/02/07 20:31:07;;;;;;;;;18.50;14.50;;;;;;;;5090718;28;8786;-73
2024/02/07 20:33:33;;;;;;;;;18.75;16.00;;;;;;;;5091231;28;8870;-71
2024/02/07 20:35:58;;;;;;;;;15.00;13.00;;;;;;;;5090613;28;11447;-71
2024/02/07 20:38:23;;;;;;;;;15.50;15.50;;;;;;;;5083587;28;8794;-71
2024/02/07 20:40:49;;;;;;;;;19.75;16.00;;;;;;;;5069834;28;8839;-71
2024/02/07 20:43:14;;;;;;;;;13.75;13.75;;;;;;;;5069724;28;9529;-70
2024/02/07 20:45:39;;;;;;;;;18.00;13.00;;;;;;;;5069730;28;8778;-71
2024/02/07 20:48:05;;;;;;;;;20.75;15.00;;;;;;;;5069672;28;8780;-71
2024/02/07 20:50:30;;;;;;;;;17.00;12.00;;;;;;;;5070271;28;8950;-70
2024/02/07 20:52:55;;;;;;;;;20.00;17.00;;;;;;;;5069556;28;8862;-71
2024/02/07 20:55:20;;;;;;;;;20.75;19.00;;;;;;;;5069619;28;8769;-72
2024/02/07 20:57:46;;;;;;;;;17.00;14.00;;;;;;;;5069649;28;8780;-71
2024/02/07 21:00:12;;;;;;;;;17.75;13.75;;;;;;;;5070040;28;8817;-71
2024/02/07 21:02:37;;;;;;;;;13.25;13.25;;;;;;;;5070465;28;8777;-72
2024/02/07 21:05:02;;;;;;;;;14.50;13.25;;;;;;;;5070062;28;8827;-71
2024/02/07 21:07:28;;;;;;;;;19.50;14.25;;;;;;;;5070060;28;8786;-71
2024/02/07 21:09:53;;;;;;;;;23.00;19.25;;;;;;;;5070187;28;8840;-72
2024/02/07 21:12:21;;;;;;;;;17.00;16.50;;;;;;;;5070243;28;8782;-71
2024/02/07 21:14:48;;;;;;;;;21.25;16.25;;;;;;;;5069155;28;8793;-71
2024/02/07 21:17:13;;;;;;;;;20.00;17.00;;;;;;;;5069281;28;11397;-73
2024/02/07 21:19:38;;;;;;;;;19.75;18.00;;;;;;;;5077059;28;11489;-71
2024/02/07 21:22:09;;;;;;;;;17.75;16.50;;;;;;;;5072204;28;9542;-75
2024/02/07 21:24:34;;;;;;;;;19.25;16.00;;;;;;;;5086290;28;8811;-75
2024/02/07 21:27:00;;;;;;;;;21.50;14.25;;;;;;;;5069661;28;11459;-74
2024/02/07 21:29:25;;;;;;;;;21.50;18.75;;;;;;;;5069787;28;8801;-74
2024/02/07 21:31:50;;;;;;;;;20.00;16.00;;;;;;;;5069931;28;8780;-74
2024/02/07 21:34:16;;;;;;;;;19.75;16.00;;;;;;;;5085404;28;8804;-77
2024/02/07 21:36:42;;;;;;;;;13.75;12.75;;;;;;;;5051795;28;8923;-75
2024/02/07 21:39:07;;;;;;;;;19.50;13.50;;;;;;;;5069573;28;11594;-76
2024/02/07 21:41:32;;;;;;;;;19.25;13.50;;;;;;;;5070605;28;9014;-77
2024/02/07 21:43:59;;;;;;;;;12.75;12.75;;;;;;;;5073974;28;8893;-77
2024/02/07 21:46:27;;;;;;;;;17.00;14.00;;;;;;;;5073771;28;8788;-77
2024/02/07 21:48:53;;;;;;;;;20.00;16.75;;;;;;;;5073910;28;12283;-77
2024/02/07 21:51:18;;;;;;;;;22.75;20.75;;;;;;;;5093650;28;11469;-77
2024/02/07 21:53:43;;;;;;;;;19.25;16.75;;;;;;;;5094114;28;8806;-79
2024/02/07 21:56:09;;;;;;;;;20.75;18.25;;;;;;;;5093941;28;8956;-76
2024/02/07 21:58:34;;;;;;;;;15.50;12.50;;;;;;;;5093817;28;8774;-79
2024/02/07 22:00:59;;;;;;;;;17.25;17.00;;;;;;;;5093807;28;8912;-78
2024/02/07 22:03:24;;;;;;;;;13.25;12.25;;;;;;;;5074743;28;8843;-78
2024/02/07 22:05:50;;;;;;;;;15.75;12.50;;;;;;;;5073292;28;8811;-78
2024/02/07 22:08:15;;;;;;;;;13.25;13.25;;;;;;;;5073122;28;8784;-78
2024/02/07 22:10:40;;;;;;;;;18.00;16.75;;;;;;;;5073446;28;8906;-81
2024/02/07 22:13:06;;;;;;;;;17.25;13.00;;;;;;;;5073895;28;9490;-80
2024/02/07 22:15:31;;;;;;;;;14.00;13.25;;;;;;;;5073302;28;8804;-79
2024/02/07 22:17:56;;;;;;;;;17.75;15.50;;;;;;;;5072983;28;8828;-80
2024/02/07 22:20:21;;;;;;;;;12.25;9.75;;;;;;;;5085995;28;8798;-78
2024/02/07 22:22:47;;;;;;;;;15.00;12.00;;;;;;;;5093248;28;8774;-79
2024/02/07 22:25:12;;;;;;;;;16.25;12.75;;;;;;;;5093527;28;8774;-79
2024/02/07 22:27:37;;;;;;;;;17.00;13.75;;;;;;;;5093649;28;8793;-80
2024/02/07 22:30:03;;;;;;;;;12.75;10.00;;;;;;;;5109253;28;8832;-80
2024/02/07 22:32:29;;;;;;;;;15.75;13.00;;;;;;;;5093138;28;8830;-79
2024/02/07 22:34:54;;;;;;;;;12.00;12.00;;;;;;;;5093275;28;9558;-79
2024/02/07 22:37:19;;;;;;;;;13.75;13.25;;;;;;;;5082869;28;8812;-79
2024/02/07 22:39:47;;;;;;;;;13.75;13.00;;;;;;;;5072958;28;8812;-78
2024/02/07 22:42:13;;;;;;;;;19.00;15.00;;;;;;;;5072937;28;8796;-78
2024/02/07 22:44:41;;;;;;;;;12.25;12.00;;;;;;;;5071953;28;11411;-78
2024/02/07 22:47:06;;;;;;;;;17.50;14.00;;;;;;;;5071948;28;8884;-78
2024/02/07 22:49:32;;;;;;;;;16.25;13.50;;;;;;;;5078454;28;11525;-78
2024/02/07 22:51:57;;;;;;;;;12.25;10.50;;;;;;;;5092243;28;8790;-78
2024/02/07 22:54:22;;;;;;;;;21.00;16.25;;;;;;;;5092426;28;8822;-79
2024/02/07 22:56:49;;;;;;;;;14.00;11.75;;;;;;;;5092862;28;8797;-80
2024/02/07 22:59:14;;;;;;;;;13.75;11.00;;;;;;;;5092960;28;8794;-80
2024/02/07 23:01:39;;;;;;;;;18.00;13.25;;;;;;;;5092422;28;11455;-80
2024/02/07 23:04:05;;;;;;;;;12.50;10.25;;;;;;;;5092789;28;8778;-78
2024/02/07 23:06:31;;;;;;;;;10.50;9.00;;;;;;;;5092469;28;8782;-73
2024/02/07 23:08:57;;;;;;;;;12.50;12.50;;;;;;;;5092786;28;9600;-79
2024/02/07 23:11:23;;;;;;;;;11.50;9.75;;;;;;;;5092631;28;12198;-75
2024/02/07 23:13:49;;;;;;;;;14.00;13.00;;;;;;;;5092556;28;11389;-75
2024/02/07 23:16:15;;;;;;;;;14.50;12.75;;;;;;;;5092646;28;8806;-76
2024/02/07 23:18:40;;;;;;;;;21.00;14.25;;;;;;;;5092767;28;11428;-79
2024/02/07 23:21:06;;;;;;;;;10.50;10.50;;;;;;;;5074025;28;8829;-79
2024/02/07 23:23:31;;;;;;;;;21.25;17.75;;;;;;;;5074235;28;9758;-78
2024/02/07 23:25:57;;;;;;;;;22.50;20.25;;;;;;;;5092325;28;8804;-78
2024/02/07 23:28:22;;;;;;;;;25.00;25.00;;;;;;;;5092393;28;8796;-78
2024/02/07 23:30:47;;;;;;;;;20.50;14.00;;;;;;;;5092184;28;8797;-78
2024/02/07 23:33:16;;;;;;;;;15.00;13.25;;;;;;;;5092108;28;8770;-77
2024/02/07 23:35:42;;;;;;;;;13.25;10.00;;;;;;;;5092044;28;9661;-78
2024/02/07 23:38:07;;;;;;;;;13.25;12.25;;;;;;;;5073892;28;11513;-78
2024/02/07 23:40:32;;;;;;;;;13.75;11.75;;;;;;;;5073887;28;9602;-79
2024/02/07 23:42:58;;;;;;;;;10.00;10.00;;;;;;;;5092137;28;8866;-80
2024/02/07 23:45:23;;;;;;;;;14.00;10.50;;;;;;;;5091921;28;8793;-78
2024/02/07 23:47:48;;;;;;;;;14.50;10.50;;;;;;;;5092111;28;8853;-79
